createdAt,value
2019-03-15T00:00:20.088Z,77.76
2019-03-15T00:02:46.764Z,78.06
2019-03-15T00:05:13.593Z,78.45
2019-03-15T00:07:41.274Z,78.87
2019-03-15T00:10:29.444Z,78.85
2019-03-15T00:12:56.137Z,78.86
2019-03-15T00:15:22.826Z,78.66
2019-03-15T00:17:49.590Z,78.81
2019-03-15T00:20:16.270Z,79.03
2019-03-15T00:22:43.069Z,79.37
2019-03-15T00:25:09.741Z,79.22
2019-03-15T00:27:36.327Z,79.54
2019-03-15T00:30:04.602Z,79.54
2019-03-15T00:32:31.292Z,79.74
2019-03-15T00:34:57.870Z,79.76
2019-03-15T00:37:24.567Z,79.94
2019-03-15T00:39:51.264Z,80.07
2019-03-15T00:42:17.962Z,80.07
2019-03-15T00:44:44.570Z,80.08
2019-03-15T00:47:11.180Z,80.04
2019-03-15T00:49:37.764Z,79.90
2019-03-15T00:52:04.575Z,79.60
2019-03-15T00:54:31.167Z,79.60
2019-03-15T00:56:58.105Z,79.50
2019-03-15T00:59:24.656Z,79.50
2019-03-15T01:01:51.362Z,79.52
2019-03-15T01:04:18.145Z,79.63
2019-03-15T01:06:44.859Z,79.72
2019-03-15T01:09:11.551Z,79.32
2019-03-15T01:11:38.246Z,79.33
2019-03-15T01:14:05.029Z,79.57
2019-03-15T01:16:31.739Z,79.63
2019-03-15T01:18:58.546Z,79.84
2019-03-15T01:21:25.266Z,79.61
2019-03-15T01:23:51.835Z,79.74
2019-03-15T01:26:18.679Z,79.50
2019-03-15T01:28:45.317Z,79.80
2019-03-15T01:31:11.933Z,79.79
2019-03-15T01:33:38.646Z,79.80
2019-03-15T01:36:05.331Z,79.86
2019-03-15T01:38:32.023Z,79.68
2019-03-15T01:40:58.601Z,79.06
2019-03-15T01:43:26.432Z,79.14
2019-03-15T01:45:53.020Z,79.88
2019-03-15T01:48:19.728Z,79.88
2019-03-15T01:50:46.504Z,79.63
2019-03-15T01:53:13.123Z,79.76
2019-03-15T01:55:40.302Z,79.48
2019-03-15T01:58:07.082Z,79.48
2019-03-15T02:00:33.866Z,79.47
2019-03-15T02:03:02.314Z,79.41
2019-03-15T02:05:29.287Z,79.41
2019-03-15T02:07:56.104Z,79.40
2019-03-15T02:10:22.903Z,79.74
2019-03-15T02:12:49.484Z,79.56
2019-03-15T02:15:16.174Z,79.79
2019-03-15T02:17:42.866Z,79.80
2019-03-15T02:20:09.562Z,79.53
2019-03-15T02:22:36.329Z,79.05
2019-03-15T02:25:03.827Z,79.05
2019-03-15T02:27:30.645Z,79.41
2019-03-15T02:29:57.345Z,79.30
2019-03-15T02:32:24.058Z,79.30
2019-03-15T02:34:50.626Z,79.11
2019-03-15T02:37:17.323Z,79.46
2019-03-15T02:39:43.905Z,78.97
2019-03-15T02:42:10.518Z,79.41
2019-03-15T02:44:37.313Z,79.17
2019-03-15T02:47:04.133Z,78.99
2019-03-15T02:49:31.113Z,78.67
2019-03-15T02:51:57.700Z,78.80
2019-03-15T02:54:24.396Z,78.74
2019-03-15T02:56:51.078Z,78.97
2019-03-15T02:59:17.775Z,79.01
2019-03-15T03:01:44.366Z,78.94
2019-03-15T03:04:11.175Z,79.16
2019-03-15T03:06:37.950Z,78.75
2019-03-15T03:09:05.372Z,79.01
2019-03-15T03:11:32.070Z,78.64
2019-03-15T03:13:58.855Z,78.83
2019-03-15T03:16:25.641Z,78.76
2019-03-15T03:18:52.345Z,78.51
2019-03-15T03:21:19.052Z,78.83
2019-03-15T03:23:46.183Z,79.08
2019-03-15T03:26:13.548Z,78.80
2019-03-15T03:28:40.567Z,78.59
2019-03-15T03:31:07.338Z,78.53
2019-03-15T03:33:34.053Z,78.61
2019-03-15T03:36:01.044Z,78.55
2019-03-15T03:38:27.848Z,78.20
2019-03-15T03:40:56.275Z,78.11
2019-03-15T03:43:23.821Z,78.22
2019-03-15T03:45:50.593Z,78.00
2019-03-15T03:48:17.691Z,78.32
2019-03-15T03:50:44.470Z,78.58
2019-03-15T03:53:11.263Z,78.01
2019-03-15T03:55:37.939Z,78.01
2019-03-15T03:58:04.843Z,77.80
2019-03-15T04:00:31.535Z,78.19
2019-03-15T04:02:58.338Z,78.54
2019-03-15T04:05:25.432Z,78.54
2019-03-15T04:07:52.211Z,78.19
2019-03-15T04:10:19.011Z,78.01
2019-03-15T04:12:46.050Z,77.89
2019-03-15T04:15:12.871Z,78.52
2019-03-15T04:17:39.655Z,78.57
2019-03-15T04:20:06.944Z,77.98
2019-03-15T04:22:33.617Z,77.94
2019-03-15T04:25:00.423Z,78.10
2019-03-15T04:27:27.105Z,77.22
2019-03-15T04:29:53.995Z,77.10
2019-03-15T04:32:21.040Z,77.10
2019-03-15T04:34:47.650Z,77.34
2019-03-15T04:37:14.331Z,77.79
2019-03-15T04:39:41.136Z,77.33
2019-03-15T04:42:08.003Z,77.42
2019-03-15T04:44:34.732Z,77.23
2019-03-15T04:47:01.447Z,77.51
2019-03-15T04:49:28.015Z,77.60
2019-03-15T04:51:54.608Z,77.53
2019-03-15T04:54:21.315Z,77.53
2019-03-15T04:56:48.004Z,77.36
2019-03-15T04:59:14.605Z,77.61
2019-03-15T05:01:41.394Z,77.85
2019-03-15T05:04:08.467Z,77.36
2019-03-15T05:06:35.147Z,77.36
2019-03-15T05:09:02.000Z,77.29
2019-03-15T05:11:28.808Z,77.42
2019-03-15T05:13:58.699Z,77.50
2019-03-15T05:16:24.205Z,78.09
2019-03-15T05:18:50.893Z,77.76
2019-03-15T05:21:37.518Z,77.43
2019-03-15T05:24:04.302Z,77.43
2019-03-15T05:26:31.103Z,77.34
2019-03-15T05:28:57.788Z,77.34
2019-03-15T05:31:24.412Z,77.61
2019-03-15T05:33:50.986Z,77.50
2019-03-15T05:36:17.707Z,77.31
2019-03-15T05:38:44.519Z,77.26
2019-03-15T05:41:11.217Z,77.29
2019-03-15T05:43:37.815Z,77.15
2019-03-15T05:46:04.517Z,77.45
2019-03-15T05:48:31.300Z,77.47
2019-03-15T05:50:58.314Z,77.05
2019-03-15T05:53:24.925Z,77.41
2019-03-15T05:55:51.529Z,77.26
2019-03-15T05:58:21.673Z,77.20
2019-03-15T06:00:46.857Z,77.20
2019-03-15T06:03:15.158Z,77.07
2019-03-15T06:05:41.968Z,76.84
2019-03-15T06:08:09.358Z,76.98
2019-03-15T06:10:36.071Z,77.19
2019-03-15T06:13:02.856Z,77.04
2019-03-15T06:15:29.569Z,77.25
2019-03-15T06:17:56.227Z,76.91
2019-03-15T06:20:23.014Z,77.38
2019-03-15T06:22:49.722Z,77.02
2019-03-15T06:25:16.396Z,77.07
2019-03-15T06:27:43.091Z,77.05
2019-03-15T06:30:09.874Z,76.57
2019-03-15T06:32:36.555Z,76.27
2019-03-15T06:35:04.271Z,76.33
2019-03-15T06:37:30.934Z,76.64
2019-03-15T06:39:57.539Z,76.87
2019-03-15T06:42:24.232Z,76.84
2019-03-15T06:44:57.953Z,76.83
2019-03-15T06:47:19.451Z,76.65
2019-03-15T06:49:46.140Z,76.65
2019-03-15T06:52:14.003Z,76.20
2019-03-15T06:54:40.729Z,76.30
2019-03-15T06:57:07.457Z,76.14
2019-03-15T06:59:34.058Z,75.96
2019-03-15T07:02:00.812Z,75.82
2019-03-15T07:04:27.527Z,76.04
2019-03-15T07:06:54.318Z,76.56
2019-03-15T07:09:21.112Z,77.47
2019-03-15T07:11:47.779Z,78.24
2019-03-15T07:14:14.587Z,79.84
2019-03-15T07:16:41.167Z,80.49
2019-03-15T07:19:07.953Z,80.80
2019-03-15T07:21:36.809Z,80.72
2019-03-15T07:24:03.325Z,81.20
2019-03-15T07:26:30.113Z,81.35
2019-03-15T07:28:56.812Z,80.54
2019-03-15T07:31:23.582Z,80.54
2019-03-15T07:33:50.184Z,80.17
2019-03-15T07:36:16.983Z,80.26
2019-03-15T07:38:43.818Z,79.52
2019-03-15T07:41:10.655Z,79.58
2019-03-15T07:43:37.231Z,79.43
2019-03-15T07:46:04.025Z,80.14
2019-03-15T07:48:30.733Z,80.03
2019-03-15T07:50:57.566Z,80.49
2019-03-15T07:53:24.382Z,80.44
2019-03-15T07:55:51.071Z,80.13
2019-03-15T07:58:17.905Z,80.38
2019-03-15T08:00:44.613Z,81.18
2019-03-15T08:03:11.389Z,81.21
2019-03-15T08:05:38.295Z,81.25
2019-03-15T08:08:05.145Z,81.59
2019-03-15T08:10:31.850Z,81.25
2019-03-15T08:12:58.527Z,80.94
2019-03-15T08:15:25.237Z,81.72
2019-03-15T08:17:52.011Z,81.59
2019-03-15T08:20:18.719Z,81.42
2019-03-15T08:22:45.531Z,80.67
2019-03-15T08:25:12.539Z,81.43
2019-03-15T08:27:39.299Z,80.82
2019-03-15T08:30:08.222Z,81.93
2019-03-15T08:32:34.922Z,81.91
2019-03-15T08:35:03.907Z,82.96
2019-03-15T08:37:30.143Z,82.86
2019-03-15T08:39:56.783Z,83.41
2019-03-15T08:42:23.453Z,83.13
2019-03-15T08:44:50.328Z,82.78
2019-03-15T08:47:17.030Z,82.45
2019-03-15T08:49:43.763Z,82.52
2019-03-15T08:52:10.466Z,83.63
2019-03-15T08:54:37.171Z,83.92
2019-03-15T08:57:03.970Z,84.57
2019-03-15T08:59:30.673Z,84.01
2019-03-15T09:01:57.308Z,83.94
2019-03-15T09:04:23.913Z,84.21
2019-03-15T09:06:50.706Z,84.35
2019-03-15T09:09:17.488Z,84.25
2019-03-15T09:11:44.288Z,84.61
2019-03-15T09:14:10.866Z,85.60
2019-03-15T09:16:37.871Z,85.42
2019-03-15T09:19:04.557Z,85.15
2019-03-15T09:21:31.266Z,85.49
2019-03-15T09:23:57.960Z,85.47
2019-03-15T09:26:24.553Z,85.43
2019-03-15T09:28:51.210Z,85.99
2019-03-15T09:31:17.913Z,84.80
2019-03-15T09:33:44.488Z,84.64
2019-03-15T09:36:11.235Z,84.46
2019-03-15T09:38:38.003Z,84.66
2019-03-15T09:41:04.813Z,84.74
2019-03-15T09:43:31.483Z,84.84
2019-03-15T09:45:58.276Z,85.44
2019-03-15T09:48:25.014Z,85.18
2019-03-15T09:50:52.033Z,85.50
2019-03-15T09:53:18.791Z,85.50
2019-03-15T09:55:45.946Z,85.49
2019-03-15T09:58:12.661Z,85.36
2019-03-15T10:00:39.446Z,86.13
2019-03-15T10:03:06.216Z,86.65
2019-03-15T10:05:33.007Z,86.26
2019-03-15T10:07:59.705Z,85.84
2019-03-15T10:10:26.402Z,86.21
2019-03-15T10:13:05.337Z,86.20
2019-03-15T10:15:21.668Z,86.39
2019-03-15T10:17:48.480Z,86.58
2019-03-15T10:20:17.259Z,85.74
2019-03-15T10:22:44.062Z,86.31
2019-03-15T10:25:10.841Z,87.03
2019-03-15T10:27:37.636Z,86.90
2019-03-15T10:30:05.378Z,87.20
2019-03-15T10:32:32.181Z,87.28
2019-03-15T10:34:58.758Z,87.77
2019-03-15T10:37:25.569Z,87.83
2019-03-15T10:39:52.342Z,88.32
2019-03-15T10:42:19.159Z,88.28
2019-03-15T10:44:47.032Z,88.61
2019-03-15T10:47:13.814Z,88.85
2019-03-15T10:49:40.476Z,88.90
2019-03-15T10:52:07.286Z,88.56
2019-03-15T10:54:34.011Z,88.30
2019-03-15T10:57:00.788Z,88.33
2019-03-15T10:59:28.222Z,88.49
2019-03-15T11:01:55.034Z,88.52
2019-03-15T11:04:21.705Z,88.84
2019-03-15T11:06:48.521Z,89.23
2019-03-15T11:09:15.323Z,89.31
2019-03-15T11:11:42.115Z,89.68
2019-03-15T11:14:08.709Z,89.58
2019-03-15T11:16:35.409Z,89.26
2019-03-15T11:19:02.079Z,89.16
2019-03-15T11:21:28.767Z,89.47
2019-03-15T11:23:55.448Z,89.61
2019-03-15T11:26:22.215Z,89.70
2019-03-15T11:28:48.901Z,89.70
2019-03-15T11:31:15.633Z,89.69
2019-03-15T11:33:42.311Z,89.48
2019-03-15T11:36:09.023Z,89.52
2019-03-15T11:38:35.603Z,89.59
2019-03-15T11:41:02.278Z,89.75
2019-03-15T11:43:28.974Z,89.97
2019-03-15T11:45:55.652Z,90.11
2019-03-15T11:48:22.332Z,90.14
2019-03-15T11:50:49.030Z,90.11
2019-03-15T11:53:18.790Z,90.29
2019-03-15T11:55:44.371Z,90.34
2019-03-15T11:58:11.124Z,90.38
2019-03-15T12:00:37.901Z,90.37
2019-03-15T12:03:05.455Z,90.48
2019-03-15T12:05:32.216Z,90.60
2019-03-15T12:07:58.904Z,90.62
2019-03-15T12:10:25.567Z,90.57
2019-03-15T12:12:52.273Z,90.54
2019-03-15T12:15:18.987Z,90.53
2019-03-15T12:17:45.770Z,90.37
2019-03-15T12:20:12.656Z,90.27
2019-03-15T12:22:39.467Z,90.13
2019-03-15T12:25:06.320Z,89.74
2019-03-15T12:27:33.106Z,89.17
2019-03-15T12:29:59.772Z,88.41
2019-03-15T12:32:26.558Z,87.93
2019-03-15T12:34:53.129Z,87.35
2019-03-15T12:37:19.791Z,86.76
2019-03-15T12:39:46.486Z,86.17
2019-03-15T12:42:13.168Z,85.20
2019-03-15T12:44:39.774Z,85.49
2019-03-15T12:47:06.517Z,85.44
2019-03-15T12:49:33.323Z,84.96
2019-03-15T12:51:59.907Z,83.85
2019-03-15T12:54:26.595Z,83.81
2019-03-15T12:56:54.237Z,83.13
2019-03-15T12:59:21.081Z,81.67
2019-03-15T13:01:47.744Z,79.32
2019-03-15T13:04:14.336Z,75.96
2019-03-15T13:06:41.010Z,76.12
2019-03-15T13:09:07.639Z,76.47
2019-03-15T13:11:34.312Z,75.71
2019-03-15T13:14:01.102Z,76.18
2019-03-15T13:16:27.774Z,76.71
2019-03-15T13:18:54.591Z,77.35
2019-03-15T13:21:21.267Z,74.74
2019-03-15T13:23:47.981Z,73.97
2019-03-15T13:26:14.764Z,76.14
2019-03-15T13:28:41.553Z,77.01
2019-03-15T13:31:08.230Z,78.01
2019-03-15T13:33:34.819Z,76.94
2019-03-15T13:36:01.598Z,77.72
2019-03-15T13:38:28.302Z,78.24
2019-03-15T13:40:54.869Z,79.62
2019-03-15T13:43:21.547Z,81.52
2019-03-15T13:45:48.353Z,82.73
2019-03-15T13:48:15.092Z,84.14
2019-03-15T13:50:41.764Z,84.64
2019-03-15T13:53:08.451Z,84.82
2019-03-15T13:55:35.154Z,85.50
2019-03-15T13:58:01.719Z,85.75
2019-03-15T14:00:28.300Z,86.02
2019-03-15T14:02:55.002Z,85.91
2019-03-15T14:05:21.806Z,85.97
2019-03-15T14:07:48.580Z,85.97
2019-03-15T14:10:15.406Z,85.05
2019-03-15T14:12:42.065Z,85.27
2019-03-15T14:15:09.622Z,85.85
2019-03-15T14:17:36.303Z,86.48
2019-03-15T14:20:04.048Z,86.82
2019-03-15T14:22:30.719Z,87.43
2019-03-15T14:24:57.408Z,87.48
2019-03-15T14:27:36.606Z,87.72
2019-03-15T14:29:52.594Z,87.88
2019-03-15T14:32:19.184Z,88.34
2019-03-15T14:34:45.889Z,88.70
2019-03-15T14:37:12.698Z,88.86
2019-03-15T14:39:40.398Z,89.24
2019-03-15T14:42:07.408Z,89.65
2019-03-15T14:44:34.165Z,89.82
2019-03-15T14:47:00.831Z,88.85
2019-03-15T14:49:27.581Z,87.70
2019-03-15T14:51:54.268Z,87.76
2019-03-15T14:54:20.985Z,87.38
2019-03-15T14:56:47.558Z,88.08
2019-03-15T14:59:14.361Z,89.03
2019-03-15T15:01:41.059Z,89.66
2019-03-15T15:04:07.905Z,89.89
2019-03-15T15:06:34.477Z,89.43
2019-03-15T15:09:01.249Z,88.74
2019-03-15T15:11:27.960Z,88.60
2019-03-15T15:13:54.751Z,88.81
2019-03-15T15:16:21.445Z,88.85
2019-03-15T15:18:48.204Z,88.57
2019-03-15T15:21:14.905Z,87.74
2019-03-15T15:23:41.701Z,87.95
2019-03-15T15:26:08.493Z,87.52
2019-03-15T15:28:35.172Z,86.53
2019-03-15T15:31:01.916Z,85.68
2019-03-15T15:33:28.489Z,86.01
2019-03-15T15:35:55.090Z,85.68
2019-03-15T15:38:21.754Z,85.69
2019-03-15T15:40:48.548Z,84.50
2019-03-15T15:43:15.325Z,85.03
2019-03-15T15:45:42.219Z,84.97
2019-03-15T15:48:08.898Z,83.42
2019-03-15T15:50:35.582Z,84.42
2019-03-15T15:53:02.287Z,84.83
2019-03-15T15:55:29.117Z,85.06
2019-03-15T15:57:55.760Z,85.50
2019-03-15T16:00:22.553Z,85.01
2019-03-15T16:02:49.230Z,84.47
2019-03-15T16:05:15.936Z,84.79
2019-03-15T16:07:42.725Z,85.17
2019-03-15T16:10:10.065Z,86.19
2019-03-15T16:12:36.745Z,84.95
2019-03-15T16:15:04.500Z,85.56
2019-03-15T16:17:31.162Z,84.82
2019-03-15T16:19:57.949Z,84.92
2019-03-15T16:22:24.650Z,84.87
2019-03-15T16:24:51.324Z,84.31
2019-03-15T16:27:18.213Z,83.62
2019-03-15T16:29:44.927Z,84.68
2019-03-15T16:32:11.709Z,84.04
2019-03-15T16:34:38.510Z,83.31
2019-03-15T16:37:05.170Z,83.28
2019-03-15T16:39:31.856Z,84.02
2019-03-15T16:41:58.461Z,83.28
2019-03-15T16:44:25.172Z,83.40
2019-03-15T16:46:51.961Z,82.55
2019-03-15T16:49:18.682Z,82.24
2019-03-15T16:51:45.368Z,82.30
2019-03-15T16:54:12.086Z,83.34
2019-03-15T16:56:38.680Z,82.62
2019-03-15T16:59:05.353Z,81.88
2019-03-15T17:01:32.036Z,81.84
2019-03-15T17:03:58.754Z,82.19
2019-03-15T17:06:25.436Z,82.52
2019-03-15T17:08:52.283Z,82.52
2019-03-15T17:11:19.092Z,82.85
2019-03-15T17:13:45.943Z,83.31
2019-03-15T17:16:12.886Z,83.55
2019-03-15T17:18:39.799Z,83.49
2019-03-15T17:21:06.503Z,84.09
2019-03-15T17:23:33.179Z,84.41
2019-03-15T17:25:59.795Z,84.35
2019-03-15T17:28:26.364Z,84.62
2019-03-15T17:30:53.135Z,84.37
2019-03-15T17:33:19.720Z,84.37
2019-03-15T17:35:46.411Z,84.58
2019-03-15T17:38:13.099Z,84.41
2019-03-15T17:40:39.788Z,84.56
2019-03-15T17:43:07.604Z,84.64
2019-03-15T17:45:34.195Z,84.65
2019-03-15T17:48:00.861Z,84.29
2019-03-15T17:50:27.658Z,84.32
2019-03-15T17:52:54.354Z,83.98
2019-03-15T17:55:21.331Z,83.29
2019-03-15T17:57:48.034Z,83.41
2019-03-15T18:00:22.479Z,83.23
2019-03-15T18:02:49.284Z,83.16
2019-03-15T18:05:16.050Z,83.06
2019-03-15T18:07:42.979Z,82.89
2019-03-15T18:10:09.764Z,80.25
2019-03-15T18:12:36.576Z,78.70
2019-03-15T18:15:03.497Z,79.41
2019-03-15T18:17:30.369Z,78.28
2019-03-15T18:19:57.171Z,76.29
2019-03-15T18:22:23.861Z,74.74
2019-03-15T18:24:50.631Z,73.76
2019-03-15T18:27:17.358Z,71.57
2019-03-15T18:29:44.115Z,70.76
2019-03-15T18:32:10.936Z,70.58
2019-03-15T18:34:37.704Z,69.96
2019-03-15T18:37:04.513Z,70.21
2019-03-15T18:39:31.088Z,68.72
2019-03-15T18:41:57.899Z,68.33
2019-03-15T18:44:24.669Z,68.13
2019-03-15T18:46:51.449Z,66.46
2019-03-15T18:49:18.822Z,65.42
2019-03-15T18:51:45.758Z,63.13
2019-03-15T18:54:17.430Z,63.85
2019-03-15T18:56:41.263Z,62.76
2019-03-15T18:59:08.100Z,62.33
2019-03-15T19:01:35.038Z,61.79
2019-03-15T19:04:01.832Z,62.38
2019-03-15T19:06:28.626Z,61.51
2019-03-15T19:08:55.238Z,62.14
2019-03-15T19:11:21.922Z,62.48
2019-03-15T19:13:48.724Z,61.51
2019-03-15T19:16:19.879Z,63.63
2019-03-15T19:18:44.058Z,61.30
2019-03-15T19:21:10.848Z,61.48
2019-03-15T19:23:37.457Z,60.87
2019-03-15T19:26:04.268Z,62.33
2019-03-15T19:28:30.995Z,63.04
2019-03-15T19:30:57.543Z,64.28
2019-03-15T19:33:24.244Z,63.62
2019-03-15T19:35:50.911Z,62.89
2019-03-15T19:38:17.592Z,62.49
2019-03-15T19:40:44.366Z,64.24
2019-03-15T19:43:10.964Z,63.23
2019-03-15T19:45:37.695Z,62.49
2019-03-15T19:48:04.524Z,61.73
2019-03-15T19:50:31.097Z,62.24
2019-03-15T19:52:57.828Z,62.87
2019-03-15T19:55:24.421Z,62.31
2019-03-15T19:57:51.207Z,62.74
2019-03-15T20:00:17.932Z,62.16
2019-03-15T20:02:44.611Z,61.20
2019-03-15T20:05:11.604Z,61.88
2019-03-15T20:07:38.484Z,61.75
2019-03-15T20:10:05.787Z,61.88
2019-03-15T20:12:52.205Z,63.11
2019-03-15T20:15:19.193Z,63.88
2019-03-15T20:17:46.043Z,64.63
2019-03-15T20:20:12.855Z,63.62
2019-03-15T20:22:39.629Z,63.42
2019-03-15T20:25:08.385Z,63.91
2019-03-15T20:27:35.084Z,63.06
2019-03-15T20:30:01.970Z,63.90
2019-03-15T20:32:28.653Z,63.89
2019-03-15T20:34:55.411Z,65.30
2019-03-15T20:37:21.983Z,64.59
2019-03-15T20:39:49.026Z,65.36
2019-03-15T20:42:15.599Z,64.36
2019-03-15T20:44:42.294Z,64.39
2019-03-15T20:47:08.890Z,64.34
2019-03-15T20:49:36.599Z,65.59
2019-03-15T20:52:03.461Z,65.11
2019-03-15T20:54:31.158Z,65.35
2019-03-15T20:57:17.468Z,65.84
2019-03-15T20:59:44.173Z,65.96
2019-03-15T21:02:10.753Z,66.91
2019-03-15T21:04:37.542Z,66.22
2019-03-15T21:07:04.208Z,66.68
2019-03-15T21:09:30.898Z,66.71
2019-03-15T21:11:57.476Z,67.71
2019-03-15T21:14:24.177Z,67.86
2019-03-15T21:16:50.868Z,68.22
2019-03-15T21:19:17.550Z,68.19
2019-03-15T21:21:44.326Z,67.83
2019-03-15T21:24:10.914Z,67.96
2019-03-15T21:26:37.495Z,67.81
2019-03-15T21:29:04.277Z,68.52
2019-03-15T21:31:30.981Z,68.71
2019-03-15T21:33:57.776Z,67.87
2019-03-15T21:36:24.573Z,68.31
2019-03-15T21:38:51.394Z,68.93
2019-03-15T21:41:18.097Z,68.84
2019-03-15T21:43:44.875Z,68.87
2019-03-15T21:46:11.576Z,68.98
2019-03-15T21:48:38.155Z,69.42
2019-03-15T21:51:04.965Z,69.36
2019-03-15T21:53:31.605Z,70.14
2019-03-15T21:55:58.314Z,69.88
2019-03-15T21:58:25.096Z,68.93
2019-03-15T22:01:01.546Z,68.70
2019-03-15T22:03:20.627Z,68.64
2019-03-15T22:05:47.756Z,68.85
2019-03-15T22:08:14.500Z,69.34
2019-03-15T22:10:41.610Z,69.09
2019-03-15T22:13:08.284Z,69.10
2019-03-15T22:15:34.991Z,68.41
2019-03-15T22:18:01.663Z,68.75
2019-03-15T22:20:28.376Z,68.85
2019-03-15T22:22:54.954Z,69.18
2019-03-15T22:25:21.953Z,68.97
2019-03-15T22:27:50.333Z,68.96
2019-03-15T22:30:17.244Z,68.85
2019-03-15T22:32:43.947Z,69.29
2019-03-15T22:35:11.266Z,69.08
2019-03-15T22:37:38.049Z,69.50
2019-03-15T22:40:05.177Z,69.76
2019-03-15T22:42:31.854Z,69.32
2019-03-15T22:44:58.546Z,68.97
2019-03-15T22:47:25.242Z,69.44
2019-03-15T22:49:52.146Z,69.63
2019-03-15T22:52:19.324Z,69.18
2019-03-15T22:54:46.055Z,69.59
2019-03-15T22:57:12.732Z,68.92
2019-03-15T22:59:39.425Z,69.43
2019-03-15T23:02:06.318Z,69.70
2019-03-15T23:04:32.892Z,69.55
2019-03-15T23:06:59.591Z,69.49
2019-03-15T23:09:26.267Z,69.04
2019-03-15T23:11:52.942Z,69.78
2019-03-15T23:14:19.520Z,69.33
2019-03-15T23:16:46.213Z,69.28
2019-03-15T23:19:12.900Z,69.31
2019-03-15T23:21:39.703Z,69.55
2019-03-15T23:24:06.479Z,69.29
2019-03-15T23:26:33.275Z,69.21
2019-03-15T23:28:59.852Z,69.08
2019-03-15T23:31:26.540Z,69.29
2019-03-15T23:33:53.123Z,69.04
2019-03-15T23:36:19.818Z,68.68
2019-03-15T23:38:46.934Z,69.39
2019-03-15T23:41:13.703Z,68.86
2019-03-15T23:43:40.405Z,67.99
2019-03-15T23:46:07.181Z,68.03
2019-03-15T23:48:33.985Z,68.07
2019-03-15T23:51:00.587Z,68.30
2019-03-15T23:53:27.178Z,68.62
2019-03-15T23:55:55.014Z,68.93
2019-03-15T23:58:21.849Z,68.94
